• Join FlightAware (Why Join?)
  • Login
  • US Flag 
03:30AM EST


 

Airport Tracker/Info


-or-


 

Live Flight TrackerFlight Track Log ✈ XOJ758 ✈ 19-Mar-2014 ✈ KASE - KOPF

Flight Track Log - Related Links

Times and Time Zones

All times are in EDT time to prevent confusion due to time zone crossing. See the XOJ758 flight status page for this flight to view local times or setup timezone preferences in your user account.

Time Position Orientation Groundspeed Altitude Reporting Facility
EDT Latitude Longitude Course Direction KTS MPH feet Rate Location/Type
06:00PM 39.2897 -106.9336 275° West 255 293 11,900  Level Denver Center
06:01PM 39.2972 -107.0525 275° West 285 328 15,000 2,565 Climbing Denver Center
06:02PM 39.2192 -107.0700 190° South 320 368 17,200 2,081 Climbing Denver Center
06:03PM 39.1100 -107.0397 168° South 370 426 19,300 1,935 Climbing Denver Center
06:04PM 39.0042 -107.0419 181° South 389 448 21,200 2,160 Climbing Denver Center
06:05PM 38.8758 -107.0406 180° South 406 467 23,800 2,544 Climbing Denver Center
06:06PM 38.7753 -107.0433 181° South 420 483 26,500 2,226 Climbing Denver Center
06:08PM 38.6319 -107.0169 172° South 451 519 28,400 1,452 Climbing Denver Center
06:09PM 38.5392 -106.8936 134° Southeast 486 559 29,500 1,059 Climbing Denver Center
06:10PM 38.4358 -106.7178 127° Southeast 511 588 30,800 662 Climbing Denver Center
06:11PM 38.3417 -106.5586 127° Southeast 540 621 31,000 194 Climbing Denver Center
06:12PM 38.2514 -106.4058 127° Southeast 553 636 31,200 1,104 Climbing Denver Center
06:13PM 38.1597 -106.2517 127° Southeast 548 631 33,300 2,064 Climbing Denver Center
06:14PM 38.0525 -106.0697 127° Southeast 536 617 35,500 1,597 Climbing Denver Center
06:15PM 37.9661 -105.9275 128° Southeast 533 613 36,600 968 Climbing Denver Center
06:16PM 37.8611 -105.7561 128° Southeast 545 627 37,500 774 Climbing Denver Center
06:17PM 37.7700 -105.6086 128° Southeast 554 638 38,200 677 Climbing Denver Center
06:18PM 37.6636 -105.4333 127° Southeast 561 646 38,900 581 Climbing Denver Center
06:19PM 37.5706 -105.2831 128° Southeast 565 650 39,400 581 Climbing Denver Center
06:20PM 37.4653 -105.1125 128° Southeast 557 641 40,100 677 Climbing Denver Center
06:21PM 37.3756 -104.9672 128° Southeast 555 639 40,800 677 Climbing Denver Center
06:22PM 37.2731 -104.8042 128° Southeast 539 620 41,500 629 Climbing Denver Center
06:23PM 37.1864 -104.6647 128° Southeast 537 618 42,100 526 Climbing Denver Center
06:24PM 37.0847 -104.5053 129° Southeast 531 611 42,700 526 Climbing Denver Center
06:26PM 36.9831 -104.3444 128° Southeast 531 611 43,300 594 Climbing Denver Center
06:26PM 36.9108 -104.2303 128° Southeast 528 608 43,700 475 Climbing Albuquerque Center
06:27PM 36.8247 -104.0964 129° Southeast 522 601 44,100 484 Climbing Albuquerque Center
06:28PM 36.7250 -103.9431 129° Southeast 514 592 44,700 387 Climbing Albuquerque Center
06:29PM 36.6458 -103.8217 129° Southeast 512 589 44,900 145 Climbing Albuquerque Center
06:30PM 36.5403 -103.6558 128° Southeast 516 594 45,000 48 Climbing Albuquerque Center
06:31PM 36.4478 -103.5161 129° Southeast 517 595 45,000  Level Albuquerque Center
06:32PM 36.4302 -103.4867 129° Southeast  Level FlightAware Approximate
06:32PM 36.3550 -103.3731 129° Southeast 523 602 45,000  Level Albuquerque Center
06:33PM 36.2614 -103.2289 129° Southeast 528 608 45,000  Level Albuquerque Center
06:34PM 36.1661 -103.0817 129° Southeast 536 617 45,000  Level Albuquerque Center
06:35PM 36.0708 -102.9389 130° Southeast 534 615 45,000  Level Albuquerque Center
06:37PM 35.9667 -102.7819 129° Southeast 536 617 45,000  Level Albuquerque Center
06:38PM 35.8736 -102.6386 129° Southeast 536 617 45,000  Level Albuquerque Center
06:39PM 35.8047 -102.4719 117° Southeast 546 628 45,000  Level Albuquerque Center
06:40PM 35.7378 -102.3031 116° Southeast 548 631 45,000  Level Albuquerque Center
06:41PM 35.6706 -102.1325 116° Southeast 552 635 45,000  Level Albuquerque Center
06:42PM 35.6022 -101.9636 116° Southeast 552 635 45,000  Level Albuquerque Center
06:43PM 35.5186 -101.7586 117° Southeast 555 639 45,000  Level Albuquerque Center
06:44PM 35.4531 -101.5872 115° Southeast 554 638 45,000  Level Albuquerque Center
06:45PM 35.3839 -101.4194 117° Southeast 553 636 45,000  Level Albuquerque Center
06:46PM 35.3072 -101.2394 118° Southeast 561 646 45,000  Level Albuquerque Center
06:47PM 35.2361 -101.0692 117° Southeast 561 646 45,000  Level Albuquerque Center
06:48PM 35.1664 -100.8997 117° Southeast 559 643 45,000  Level Albuquerque Center
06:49PM 35.0947 -100.7306 117° Southeast 559 643 45,000  Level Albuquerque Center
06:50PM 35.0236 -100.5611 117° Southeast 561 646 45,000  Level Albuquerque Center
06:51PM 34.9433 -100.3708 117° Southeast 559 643 45,000  Level Albuquerque Center
06:52PM 34.8725 -100.2019 117° Southeast 560 644 45,000  Level Albuquerque Center
06:53PM 34.8000 -100.0333 118° Southeast 562 647 45,000  Level Albuquerque Center
06:54PM 34.7281 -99.8658 118° Southeast 562 647 45,000  Level Albuquerque Center
06:55PM 34.6264 -99.6306 118° Southeast 561 646 45,000  Level Fort Worth Center
06:56PM 34.5533 -99.4622 118° Southeast 562 647 45,000  Level Fort Worth Center
06:57PM 34.4817 -99.2972 118° Southeast 560 644 45,000  Level Fort Worth Center
06:58PM 34.4072 -99.1292 118° Southeast 561 646 45,000  Level Fort Worth Center
06:59PM 34.3192 -98.9294 118° Southeast 562 647 45,000  Level Fort Worth Center
07:01PM 34.2447 -98.7606 118° Southeast 566 651 45,000  Level Fort Worth Center
07:02PM 34.1711 -98.5919 118° Southeast 567 652 45,000  Level Fort Worth Center
07:03PM 34.0914 -98.4131 118° Southeast 568 654 45,000  Level Fort Worth Center
07:04PM 34.0158 -98.2478 119° Southeast 567 652 45,000  Level Fort Worth Center
07:05PM 33.9397 -98.0822 119° Southeast 567 652 45,000  Level Fort Worth Center
07:06PM 33.8650 -97.9142 118° Southeast 567 652 45,000  Level Fort Worth Center
07:07PM 33.7894 -97.7492 119° Southeast 567 652 45,000  Level Fort Worth Center
07:08PM 33.6986 -97.5514 119° Southeast 564 649 45,000  Level Fort Worth Center
07:09PM 33.6219 -97.3864 119° Southeast 564 649 45,000  Level Fort Worth Center
07:10PM 33.5456 -97.2197 119° Southeast 565 650 45,000  Level Fort Worth Center
07:11PM 33.4692 -97.0556 119° Southeast 565 650 45,000  Level Fort Worth Center
07:12PM 33.3911 -96.8897 119° Southeast 565 650 45,000  Level Fort Worth Center
07:13PM 33.3131 -96.7239 119° Southeast 565 650 45,000  Level Fort Worth Center
07:14PM 33.2350 -96.5600 120° Southeast 565 650 45,000  Level Fort Worth Center
07:15PM 33.1572 -96.3953 119° Southeast 566 651 45,000  Level Fort Worth Center
07:16PM 33.0733 -96.2161 119° Southeast 565 650 45,000  Level Fort Worth Center
07:17PM 32.9958 -96.0564 120° Southeast 563 648 45,000  Level Fort Worth Center
07:18PM 32.9039 -95.8628 119° Southeast 563 648 45,000  Level Fort Worth Center
07:19PM 32.8272 -95.7047 120° Southeast 561 646 45,000  Level Fort Worth Center
07:20PM 32.7503 -95.5450 120° Southeast 561 646 45,000  Level Fort Worth Center
07:21PM 32.6825 -95.4053 120° Southeast 561 646 45,000  Level Fort Worth Center
07:22PM 32.5947 -95.2272 120° Southeast 560 644 45,000  Level Fort Worth Center
07:23PM 32.5167 -95.0686 120° Southeast 560 644 45,000  Level Fort Worth Center
07:24PM 32.4228 -94.8803 121° Southeast 560 644 45,000  Level Fort Worth Center
07:25PM 32.3383 -94.7094 120° Southeast 560 644 45,000  Level Fort Worth Center
07:26PM 32.2656 -94.5658 121° Southeast 559 643 45,000  Level Fort Worth Center
07:27PM 32.1792 -94.3906 120° Southeast 560 644 45,000  Level Fort Worth Center
07:28PM 32.0989 -94.2300 121° Southeast 562 647 45,000  Level Fort Worth Center
07:30PM 32.0178 -94.0703 121° Southeast 563 648 45,000  Level Fort Worth Center
07:31PM 31.9361 -93.9083 121° Southeast 569 655 45,000  Level Fort Worth Center
07:31PM 31.8750 -93.7900 121° Southeast 570 656 45,000  Level Houston Center
07:32PM 31.7772 -93.5981 121° Southeast 570 656 45,000  Level Houston Center
07:33PM 31.6961 -93.4378 121° Southeast 571 657 45,000  Level Houston Center
07:34PM 31.6147 -93.2817 121° Southeast 571 657 45,000  Level Houston Center
07:35PM 31.5308 -93.1200 121° Southeast 573 659 45,000  Level Houston Center
07:37PM 31.4475 -92.9603 121° Southeast 573 659 45,000  Level Houston Center
07:38PM 31.3478 -92.7672 121° Southeast 573 659 45,000  Level Houston Center
07:39PM 31.2636 -92.6069 122° Southeast 576 663 45,000  Level Houston Center
07:40PM 31.1786 -92.4475 122° Southeast 577 664 45,000  Level Houston Center
07:41PM 31.0953 -92.2889 122° Southeast 576 663 45,000  Level Houston Center
07:42PM 31.0039 -92.1164 122° Southeast 573 659 45,000  Level Houston Center
07:43PM 30.9208 -91.9611 122° Southeast 570 656 45,000  Level Houston Center
07:44PM 30.8386 -91.8061 122° Southeast 568 654 45,000  Level Houston Center
07:45PM 30.7547 -91.6508 122° Southeast 567 652 45,000  Level Houston Center
07:46PM 30.6728 -91.4969 122° Southeast 566 651 45,000  Level Houston Center
07:47PM 30.5822 -91.3297 122° Southeast 566 651 45,000  Level Houston Center
07:48PM 30.4969 -91.1775 123° Southeast 566 651 45,000  Level Houston Center
07:49PM 30.3997 -90.9942 122° Southeast 561 646 45,000  Level Houston Center
07:50PM 30.3158 -90.8417 122° Southeast 561 646 45,000  Level Houston Center
07:51PM 30.2314 -90.6897 123° Southeast 561 646 45,000  Level Houston Center
07:52PM 30.1478 -90.5378 122° Southeast 562 647 45,000  Level Houston Center
07:53PM 30.0619 -90.3856 123° Southeast 566 651 45,000  Level Houston Center
07:54PM 29.9622 -90.2044 122° Southeast 566 651 45,000  Level Houston Center
07:55PM 29.8775 -90.0539 123° Southeast 566 651 45,000  Level Houston Center
07:56PM 29.7839 -89.9125 127° Southeast 565 650 45,000  Level Houston Center
07:57PM 29.6839 -89.7781 131° Southeast 561 646 45,000  Level Houston Center
07:58PM 29.5853 -89.6444 130° Southeast 556 640 45,000  Level Houston Center
07:59PM 29.4669 -89.4825 130° Southeast 555 639 45,000  Level Houston Center
08:00PM 29.3681 -89.3472 130° Southeast 555 639 45,000  Level Houston Center
08:01PM 29.2697 -89.2169 131° Southeast 550 633 45,000  Level Houston Center
08:02PM 29.1706 -89.0836 130° Southeast 550 633 45,000  Level Houston Center
08:03PM 29.0733 -88.9525 130° Southeast 548 631 45,000  Level Houston Center
08:04PM 28.9544 -88.7956 131° Southeast 548 631 45,000  Level Houston Center
08:05PM 28.8547 -88.6636 131° Southeast 548 631 45,000  Level Houston Center
08:07PM 28.7569 -88.5300 130° Southeast 548 631 45,000  Level Houston Center
08:08PM 28.6561 -88.3989 131° Southeast 548 631 45,000  Level Houston Center
08:09PM 28.5567 -88.2664 130° Southeast 550 633 45,000  Level Houston Center
08:10PM 28.4569 -88.1336 130° Southeast 551 634 45,000  Level Houston Center
08:11PM 28.3697 -87.9847 124° Southeast 554 638 45,000  Level Houston Center
08:12PM 28.3089 -87.7775 108° East 577 664 45,000  Level Houston Center
08:13PM 28.2550 -87.6106 110° East 575 662 45,000  Level Houston Center
08:14PM 28.2003 -87.4450 111° Southeast 574 661 45,000  Level Houston Center
08:15PM 28.1453 -87.2786 111° Southeast 570 656 45,000  Level Houston Center
08:16PM 28.0914 -87.1117 110° East 570 656 45,000  Level Houston Center
08:17PM 28.0364 -86.9439 110° East 569 655 45,000  Level Houston Center
08:18PM 27.9697 -86.7450 111° Southeast 567 652 45,000  Level Houston Center
08:19PM 27.9114 -86.5706 111° Southeast 569 655 45,000  Level Houston Center
08:20PM 27.8553 -86.4039 111° Southeast 569 655 45,000  Level Houston Center
08:21PM 27.7822 -86.1947 112° Southeast 562 647 45,000  Level Jacksonville Center
08:22PM 27.7258 -86.0289 111° Southeast 562 647 45,000  Level Jacksonville Center
08:24PM 27.6369 -85.7614 111° Southeast 566 651 45,000  Level Miami Center
08:25PM 27.5681 -85.5925 115° Southeast 566 651 45,000  Level Miami Center
08:26PM 27.5156 -85.4272 110° East 566 651 45,000  Level Miami Center
08:27PM 27.4481 -85.2283 111° Southeast 572 658 45,000  Level Miami Center
08:28PM 27.3908 -85.0631 111° Southeast 572 658 45,000  Level Miami Center
08:29PM 27.3336 -84.8956 111° Southeast 572 658 45,000  Level Miami Center
08:30PM 27.2781 -84.7308 111° Southeast 567 652 45,000  Level Miami Center
08:31PM 27.2239 -84.5731 111° Southeast 561 646 45,000  Level Miami Center
08:32PM 27.1658 -84.4131 112° Southeast 556 640 45,000 -100 Level Miami Center
08:33PM 27.1114 -84.2533 111° Southeast 549 632 44,800 -500 Descending Miami Center
08:34PM 27.0486 -84.0933 114° Southeast 549 632 44,000 -750 Descending Miami Center
08:35PM 26.9939 -83.9364 111° Southeast 549 632 43,300 -750 Descending Miami Center
08:36PM 26.9406 -83.7842 111° Southeast 543 625 42,500 -750 Descending Miami Center
08:37PM 26.8853 -83.6319 112° Southeast 532 612 41,800 -950 Descending Miami Center
08:38PM 26.8319 -83.4800 111° Southeast 525 604 40,600 -1,250 Descending Miami Center
08:39PM 26.7761 -83.3306 113° Southeast 525 604 39,300 -1,300 Descending Miami Center
08:40PM 26.7200 -83.1786 112° Southeast 525 604 38,000 -1,250 Descending Miami Center
08:41PM 26.6642 -83.0247 112° Southeast 530 610 36,800 -1,250 Descending Miami Center
08:42PM 26.6078 -82.8733 113° Southeast 524 603 35,500 -1,300 Descending Miami Center
08:43PM 26.5514 -82.7194 112° Southeast 529 609 34,200 -1,300 Descending Miami Center
08:44PM 26.4950 -82.5658 112° Southeast 535 616 32,900 -1,450 Descending Miami Center
08:45PM 26.4328 -82.3961 112° Southeast 529 609 31,300 -1,450 Descending Miami Center
08:46PM 26.3756 -82.2497 114° Southeast 523 602 30,000 -1,500 Descending Miami Center
08:47PM 26.3206 -82.1014 112° Southeast 523 602 28,300 -2,000 Descending Miami Center
08:48PM 26.2692 -81.9578 112° Southeast 507 583 26,000 -2,250 Descending Miami Center
08:49PM 26.2197 -81.8167 111° Southeast 502 578 23,800 -2,200 Descending Miami Center
08:50PM 26.1656 -81.6850 115° Southeast 482 555 21,600 -2,100 Descending Miami Center
08:51PM 26.1197 -81.5583 112° Southeast 464 534 19,600 -2,050 Descending Miami Center
08:52PM 26.0714 -81.4339 113° Southeast 439 505 17,500 -2,050 Descending Miami Center
08:53PM 26.0250 -81.3164 114° Southeast 419 482 15,500 -1,850 Descending Miami Center
08:54PM 25.9825 -81.2039 113° Southeast 400 460 13,800 -1,733 Descending Miami Center
08:55PM 25.9589 -81.1547 118° Southeast 362 417 12,900 -1,700 Descending Miami Center
08:55PM 25.9436 -81.1033 108° East 373 429 12,100 -1,459 Descending Miami Center
08:55PM 25.9356 -81.0936 133° Southeast 336 387 12,000 -1,433 Descending Miami Center
08:56PM 25.9006 -81.0047 114° Southeast 308 354 10,500 -1,274 Descending Miami Center
08:57PM 25.8900 -80.9306 99° East 307 353 9,600 -1,091 Descending Miami Center
08:57PM 25.8922 -80.9261 61° Northeast 278 320 9,500 -1,400 Descending Miami Center
08:58PM 25.9111 -80.8506 74° East 267 307 8,200 -1,279 Descending Miami Center
08:58PM 25.9089 -80.8481 135° Southeast 268 308 8,200 -1,900 Level Miami Center
08:59PM 25.9300 -80.7678 74° East 267 307 6,300 -1,869 Descending Miami Center
08:59PM 25.9281 -80.7656 134° Southeast 274 315 6,300 -1,754 Level Miami Center
09:00PM 25.9511 -80.6783 74° East 289 333 4,400 -1,853 Descending Miami Center
09:00PM 25.9575 -80.6694 51° Northeast 278 320 4,200 -1,082 Descending Miami Center
09:01PM 25.9658 -80.5958 83° East 254 292 3,300 -1,100 Descending Miami Center
09:01PM 25.9681 -80.5889 70° East 273 314 3,100 -1,082 Descending Miami Center
09:02PM 25.9717 -80.5267 86° East 226 260 2,200 -1,100 Descending Miami Center
09:02PM 25.9739 -80.5197 70° East 251 289 2,000 -197 Descending Miami Center
09:03PM 25.9775 -80.4622 86° East 194 223 2,000 -100 Level Miami Center
09:03PM 25.9794 -80.4644 314° West 225 259 1,900 -200 Descending Miami Center
09:04PM 25.9725 -80.4089 98° East 185 213 1,800 -100 Descending Miami Center
09:04PM 25.9789 -80.4067 17° North 194 223 1,800 -295 Level Miami Center
09:05PM 25.9483 -80.3664 130° Southeast 132 152 1,500 -407 Descending Miami Center
09:06PM 25.9325 -80.3314 117° Southeast 127 146 1,000 -590 Descending Miami Center
09:07PM 25.9144 -80.2986 121° Southeast 119 137 300 -689 Descending Miami Center
09:09PM 25.9074 -80.2782 111° Southeast  Level Estimated